Date,TemperatureHighF,TemperatureAvgF,TemperatureLowF,DewpointHighF,DewpointAvgF,DewpointLowF,HumidityHigh,HumidityAvg,HumidityLow,PressureMaxIn,PressureMinIn,WindSpeedMaxMPH,WindSpeedAvgMPH,GustSpeedMaxMPH,PrecipitationSumIn
2013-3-1,60.2,54.2,49.8,52.8,50.8,48.1,96,89,74,30.38,30.25,2,0,8,0.00
2013-3-2,55.6,49.9,40.6,50.3,46.9,37.9,99,90,79,30.25,30.09,3,0,10,0.00
2013-3-3,49.6,39.8,30.5,39.5,34.9,29.8,99,84,57,30.26,30.18,3,0,8,0.00
2013-3-4,56.2,41.4,29.2,37.4,32.1,28.2,98,74,37,30.18,29.85,6,1,12,0.00
2013-3-5,48.1,40.7,33.1,45.3,39.1,31.4,97,94,88,29.85,29.57,2,0,8,0.31
2013-3-6,44.2,42.1,40.6,43.7,41.3,39.1,99,97,92,29.90,29.47,3,0,9,0.41
2013-3-7,53.8,41.6,31.9,42.6,36.6,31.4,100,84,50,29.99,29.90,5,0,11,0.01
2013-3-8,57.0,41.3,29.7,40.2,34.6,29.1,99,80,41,30.15,29.96,3,0,9,0.00
2013-3-9,56.0,41.1,29.0,43.0,36.1,28.3,99,84,52,30.43,30.15,2,0,6,0.00
2013-3-10,50.0,42.5,32.7,44.2,39.2,31.7,99,89,75,30.43,30.35,2,0,5,0.00
2013-3-11,55.6,48.7,42.9,50.3,46.4,41.7,98,92,80,30.36,30.17,1,0,5,0.00
2013-3-12,59.9,52.9,47.3,52.2,49.0,45.7,97,87,68,30.17,30.08,3,0,9,0.00
2013-3-13,62.6,52.9,45.8,51.9,48.2,44.8,97,85,60,30.16,30.01,3,0,6,0.00
2013-3-14,58.7,51.7,44.9,49.6,46.9,43.9,98,85,58,30.14,29.97,4,0,9,0.00
2013-3-15,63.1,54.6,45.6,52.5,48.3,44.4,98,81,57,30.16,30.08,2,0,6,0.00
2013-3-16,50.9,46.6,37.7,47.4,44.4,36.7,97,92,81,30.11,29.94,3,0,12,0.16
2013-3-17,51.0,42.9,35.5,39.4,37.0,34.4,97,81,58,30.24,30.09,3,1,11,0.00
2013-3-18,52.6,42.9,32.9,40.9,36.7,31.7,98,80,55,30.23,30.09,3,0,9,0.00
2013-3-19,51.8,44.0,36.5,46.5,40.6,34.9,98,88,62,30.09,29.60,2,0,6,0.65
2013-3-20,52.9,48.5,40.2,51.4,44.6,35.7,99,87,67,30.10,29.46,5,2,19,0.40
2013-3-21,49.3,42.6,37.6,41.4,36.9,34.7,92,81,57,30.25,30.10,3,1,11,0.01
2013-3-22,47.2,38.3,31.6,39.6,34.8,30.6,98,88,57,30.34,30.24,5,0,13,0.03
2013-3-23,47.9,38.9,32.0,37.8,32.7,27.4,99,81,45,30.33,30.21,4,0,8,0.01
2013-3-24,54.9,44.4,32.9,36.6,34.1,31.3,96,70,46,30.21,30.01,6,1,12,0.00
2013-3-25,60.2,49.7,38.0,42.7,36.0,30.5,90,62,37,30.02,29.83,6,1,14,0.00
2013-3-26,53.1,45.6,36.9,48.4,42.9,35.1,98,91,81,29.96,29.89,1,0,4,0.01
2013-3-27,62.6,51.4,39.7,50.1,45.4,38.9,99,82,52,29.92,29.83,3,0,7,0.01
2013-3-28,52.4,45.1,42.3,49.3,44.1,41.5,99,96,89,29.99,29.92,3,0,7,0.00
2013-3-29,66.4,65.2,62.9,52.6,48.8,46.5,69,55,50,30.11,30.05,3,1,7,0.01
2013-3-30,75.6,60.0,60.0,53.0,31.3,-99.9,68,46,39,30.07,29.89,6,-122,14,0.00
2013-3-31,70.8,59.3,44.7,54.8,49.1,42.5,95,71,48,29.93,29.82,3,1,7,0.00